Time;durP1;ratioP1;P1;durP2;ratioP2;P2;SDS_P1;SDS_P2;PMS_P1;PMS_P2;Temp;Humidity;BMP_temperature;BMP_pressure;BME280_temperature;BME280_humidity;BME280_pressure;Samples;Min_cycle;Max_cycle;Signal;HPM_P1;HPM_P2
2023/09/29 00:00:27;;;;;;;12.27;11.17;;;19.60;99.90;;;;;;4975470;28;20408;-65
2023/09/29 00:02:55;;;;;;;12.80;11.60;;;19.70;99.90;;;;;;4974589;28;20494;-65
2023/09/29 00:05:21;;;;;;;12.77;11.70;;;19.60;99.90;;;;;;4973564;28;20215;-65
2023/09/29 00:07:47;;;;;;;12.43;11.33;;;19.60;99.90;;;;;;4975512;28;20446;-64
2023/09/29 00:10:16;;;;;;;12.77;11.73;;;19.60;99.90;;;;;;4956569;28;20952;-64
2023/09/29 00:12:43;;;;;;;12.73;11.53;;;19.60;99.90;;;;;;4974521;28;20482;-64
2023/09/29 00:15:09;;;;;;;11.80;10.90;;;19.60;99.90;;;;;;4973396;28;20426;-65
2023/09/29 00:17:35;;;;;;;12.57;11.57;;;19.60;99.90;;;;;;4975588;28;20470;-65
2023/09/29 00:20:02;;;;;;;13.30;12.00;;;19.60;99.90;;;;;;4974591;28;20428;-65
2023/09/29 00:22:28;;;;;;;13.23;12.13;;;19.60;99.90;;;;;;4973696;28;20207;-65
2023/09/29 00:24:54;;;;;;;12.90;11.70;;;19.60;99.90;;;;;;4974108;28;20582;-65
2023/09/29 00:27:20;;;;;;;14.43;11.30;;;19.60;99.90;;;;;;4973513;28;20672;-65
2023/09/29 00:29:46;;;;;;;13.20;11.90;;;19.70;99.90;;;;;;4974268;28;20449;-64
2023/09/29 00:32:12;;;;;;;13.07;12.03;;;19.70;99.90;;;;;;4973175;28;20427;-65
2023/09/29 00:34:37;;;;;;;12.37;11.33;;;19.70;99.90;;;;;;4957810;28;20175;-65
2023/09/29 00:37:04;;;;;;;12.80;11.60;;;19.70;99.90;;;;;;4974514;28;20219;-63
2023/09/29 00:39:30;;;;;;;13.20;12.00;;;19.70;99.90;;;;;;4973572;28;20180;-65
2023/09/29 00:41:56;;;;;;;14.03;12.73;;;19.70;99.90;;;;;;4941516;28;20974;-65
2023/09/29 00:44:22;;;;;;;13.40;12.07;;;19.70;99.90;;;;;;4973157;28;20431;-65
2023/09/29 00:46:48;;;;;;;13.33;12.30;;;19.70;99.90;;;;;;4974147;28;20715;-64
2023/09/29 00:49:14;;;;;;;14.70;13.30;;;19.70;99.90;;;;;;4973936;28;20192;-64
2023/09/29 00:51:39;;;;;;;13.53;12.23;;;19.70;99.90;;;;;;4973693;28;20486;-64
2023/09/29 00:54:08;;;;;;;13.30;12.20;;;19.70;99.90;;;;;;4974643;28;20748;-60
2023/09/29 00:56:39;;;;;;;13.20;11.97;;;19.70;99.90;;;;;;4973877;28;20184;-62
2023/09/29 00:59:09;;;;;;;14.63;12.83;;;19.70;99.90;;;;;;4955654;28;20821;-60
2023/09/29 01:01:35;;;;;;;14.60;13.40;;;19.70;99.90;;;;;;4973657;28;20455;-65
2023/09/29 01:04:00;;;;;;;13.70;12.50;;;19.70;99.90;;;;;;4974140;28;20926;-65
2023/09/29 01:06:29;;;;;;;15.03;13.77;;;19.60;99.90;;;;;;4967653;28;20252;-65
2023/09/29 01:08:59;;;;;;;13.40;12.30;;;19.60;99.90;;;;;;4973641;28;20181;-64
2023/09/29 01:11:25;;;;;;;14.87;13.47;;;19.60;99.90;;;;;;4972902;28;20415;-65
2023/09/29 01:13:51;;;;;;;13.73;12.63;;;19.60;99.90;;;;;;4974058;28;20804;-65
2023/09/29 01:16:17;;;;;;;12.77;11.67;;;19.60;99.90;;;;;;4963920;28;20192;-65
2023/09/29 01:18:43;;;;;;;11.93;11.10;;;19.60;99.90;;;;;;4973219;28;20460;-64
2023/09/29 01:21:09;;;;;;;12.17;11.17;;;19.60;99.90;;;;;;4973479;28;20479;-60
2023/09/29 01:23:35;;;;;;;13.00;11.90;;;19.50;99.90;;;;;;4972977;28;20247;-64
2023/09/29 01:26:05;;;;;;;13.17;12.17;;;19.50;99.90;;;;;;4973766;28;20176;-63
2023/09/29 01:28:30;;;;;;;14.73;13.47;;;19.50;99.90;;;;;;4955477;28;20243;-64
2023/09/29 01:30:57;;;;;;;13.97;12.77;;;19.50;99.90;;;;;;4973312;28;20927;-64
2023/09/29 01:33:22;;;;;;;15.00;13.10;;;19.50;99.90;;;;;;4966736;28;20184;-64
2023/09/29 01:35:48;;;;;;;15.43;14.00;;;19.50;99.90;;;;;;4973899;28;20415;-64
2023/09/29 01:38:14;;;;;;;15.50;14.17;;;19.50;99.90;;;;;;4972184;28;20192;-64
2023/09/29 01:40:41;;;;;;;16.10;14.70;;;19.50;99.90;;;;;;4955530;28;20428;-65
2023/09/29 01:43:07;;;;;;;17.90;14.20;;;19.50;99.90;;;;;;4973553;28;20408;-64
2023/09/29 01:45:33;;;;;;;14.20;12.90;;;19.50;99.90;;;;;;4971909;28;20927;-65
2023/09/29 01:48:00;;;;;;;16.37;15.00;;;19.50;99.90;;;;;;4973078;28;20732;-65
2023/09/29 01:50:26;;;;;;;16.70;15.20;;;19.50;99.90;;;;;;4972684;28;20651;-64
2023/09/29 01:52:52;;;;;;;14.90;13.40;;;19.50;99.90;;;;;;4972579;28;20432;-64
2023/09/29 01:55:19;;;;;;;16.23;14.80;;;19.60;99.90;;;;;;4971979;28;20259;-64
2023/09/29 01:57:50;;;;;;;14.40;13.30;;;19.60;99.90;;;;;;4973117;28;20420;-64
2023/09/29 02:00:24;;;;;;;14.90;13.60;;;19.60;99.90;;;;;;4972132;28;20531;-64
2023/09/29 02:02:52;;;;;;;15.50;14.20;;;19.60;99.90;;;;;;4972261;28;20459;-65
2023/09/29 02:05:18;;;;;;;14.73;13.43;;;19.60;99.90;;;;;;4972545;28;20907;-65
2023/09/29 02:07:44;;;;;;;14.40;13.00;;;19.60;99.90;;;;;;4955425;28;20442;-64
2023/09/29 02:10:11;;;;;;;15.03;13.63;;;19.60;99.90;;;;;;4972036;28;20616;-60
2023/09/29 02:12:46;;;;;;;13.83;12.67;;;19.60;99.90;;;;;;4972690;28;20432;-64
2023/09/29 02:15:16;;;;;;;14.37;12.93;;;19.60;99.90;;;;;;4972135;28;20437;-60
2023/09/29 02:17:42;;;;;;;14.30;12.93;;;19.60;99.90;;;;;;4973393;28;20834;-64
2023/09/29 02:20:30;;;;;;;14.00;12.60;;;19.60;99.90;;;;;;4973391;28;20415;-66
2023/09/29 02:23:00;;;;;;;13.80;12.33;;;19.60;99.90;;;;;;4973362;28;20776;-65
2023/09/29 02:25:26;;;;;;;14.27;12.87;;;19.60;99.90;;;;;;4954652;28;20955;-65
2023/09/29 02:27:57;;;;;;;14.67;13.30;;;19.60;99.90;;;;;;4972418;28;20936;-64
2023/09/29 02:30:24;;;;;;;13.63;12.43;;;19.60;99.90;;;;;;4954780;28;20478;-65
2023/09/29 02:32:53;;;;;;;14.50;12.93;;;19.60;99.90;;;;;;4972200;28;20436;-65
2023/09/29 02:35:19;;;;;;;13.87;12.57;;;19.60;99.90;;;;;;4972465;28;20396;-65
2023/09/29 02:37:45;;;;;;;13.90;12.50;;;19.60;99.90;;;;;;4972307;28;20485;-64
2023/09/29 02:40:12;;;;;;;13.87;12.50;;;19.70;99.90;;;;;;4972202;28;20514;-60
2023/09/29 02:42:38;;;;;;;13.10;12.10;;;19.70;99.90;;;;;;4971422;28;20554;-65
2023/09/29 02:45:05;;;;;;;14.27;13.07;;;19.70;99.90;;;;;;4973229;28;20268;-65
2023/09/29 02:47:31;;;;;;;17.73;13.00;;;19.70;99.90;;;;;;4971173;28;20482;-64
2023/09/29 02:49:58;;;;;;;14.37;13.17;;;19.70;99.90;;;;;;4975966;28;20478;-65
2023/09/29 02:52:25;;;;;;;14.63;13.23;;;19.70;99.90;;;;;;4975695;28;20465;-62
2023/09/29 02:54:51;;;;;;;14.77;13.50;;;19.70;99.90;;;;;;4975653;28;20845;-65
2023/09/29 02:57:17;;;;;;;15.20;14.10;;;19.70;99.90;;;;;;4957380;28;20435;-63
2023/09/29 02:59:44;;;;;;;14.40;12.90;;;19.70;99.90;;;;;;4976775;28;20199;-64
2023/09/29 03:02:10;;;;;;;14.60;13.27;;;19.70;99.90;;;;;;4959023;28;20939;-64
2023/09/29 03:04:39;;;;;;;15.90;13.80;;;19.70;99.90;;;;;;4975098;28;20611;-64
2023/09/29 03:07:05;;;;;;;15.13;13.83;;;19.70;99.90;;;;;;4975836;28;20306;-64
2023/09/29 03:09:33;;;;;;;14.90;13.37;;;19.70;99.90;;;;;;4975512;28;20782;-65
2023/09/29 03:12:00;;;;;;;14.30;13.00;;;19.70;99.90;;;;;;4975846;28;20454;-65
2023/09/29 03:14:26;;;;;;;15.13;13.87;;;19.70;99.90;;;;;;4973734;28;20515;-65
2023/09/29 03:16:53;;;;;;;15.83;14.53;;;19.60;99.90;;;;;;4959001;28;20464;-65
2023/09/29 03:19:20;;;;;;;17.47;15.80;;;19.60;99.90;;;;;;4974915;28;20446;-64
2023/09/29 03:21:48;;;;;;;15.13;13.83;;;19.60;99.90;;;;;;4975545;28;20467;-65
2023/09/29 03:24:14;;;;;;;13.47;12.37;;;19.60;99.90;;;;;;4976168;28;20447;-60
2023/09/29 03:26:40;;;;;;;13.23;12.23;;;19.60;99.90;;;;;;4974122;28;20424;-64
2023/09/29 03:29:06;;;;;;;13.93;12.73;;;19.60;99.90;;;;;;4975376;28;20518;-65
2023/09/29 03:31:31;;;;;;;13.17;12.17;;;19.60;99.90;;;;;;4975423;28;20211;-65
2023/09/29 03:33:57;;;;;;;13.30;12.10;;;19.60;99.90;;;;;;4975289;28;20535;-66
2023/09/29 03:36:23;;;;;;;14.37;13.07;;;19.50;99.90;;;;;;4974634;28;20186;-64
2023/09/29 03:38:49;;;;;;;14.07;12.87;;;19.50;99.90;;;;;;4954611;29;20551;-66
2023/09/29 03:41:15;;;;;;;12.87;11.67;;;19.60;99.90;;;;;;4958504;28;20471;-60
2023/09/29 03:43:41;;;;;;;13.00;12.00;;;19.60;99.90;;;;;;4958182;28;20491;-64
2023/09/29 03:46:19;;;;;;;12.27;11.20;;;19.60;99.90;;;;;;4975751;28;20688;-65
2023/09/29 03:48:47;;;;;;;12.97;11.73;;;19.60;99.90;;;;;;4975868;28;20414;-65
2023/09/29 03:51:23;;;;;;;11.23;10.27;;;19.60;99.90;;;;;;4975783;28;20440;-65
2023/09/29 03:53:57;;;;;;;12.40;11.40;;;19.60;99.90;;;;;;4956877;29;20396;-65
2023/09/29 03:56:23;;;;;;;10.60;9.80;;;19.60;99.90;;;;;;4966710;28;20460;-65
2023/09/29 03:58:50;;;;;;;10.37;9.37;;;19.60;99.90;;;;;;4956928;28;20435;-65
2023/09/29 04:01:16;;;;;;;9.87;9.07;;;19.60;99.90;;;;;;4974795;28;20891;-61
2023/09/29 04:03:42;;;;;;;10.03;9.20;;;19.60;99.90;;;;;;4973375;28;20475;-64
2023/09/29 04:06:09;;;;;;;11.57;10.57;;;19.60;99.90;;;;;;4974928;28;20920;-65
2023/09/29 04:08:35;;;;;;;11.57;10.57;;;19.60;99.90;;;;;;4974761;28;20199;-64
2023/09/29 04:11:00;;;;;;;11.53;10.63;;;19.60;99.90;;;;;;4974822;28;20440;-64
2023/09/29 04:13:26;;;;;;;13.13;12.13;;;19.60;99.90;;;;;;4973828;28;20177;-64
2023/09/29 04:15:52;;;;;;;13.27;11.90;;;19.60;99.90;;;;;;4975160;28;20184;-65
2023/09/29 04:18:18;;;;;;;10.67;9.87;;;19.60;99.90;;;;;;4974074;28;20271;-61
2023/09/29 04:20:43;;;;;;;10.70;9.80;;;19.70;99.90;;;;;;4974268;28;20208;-65
2023/09/29 04:23:09;;;;;;;8.63;7.93;;;19.60;99.90;;;;;;4973933;28;20695;-64
2023/09/29 04:25:35;;;;;;;8.23;7.53;;;19.70;99.90;;;;;;4969565;28;20188;-65
2023/09/29 04:28:01;;;;;;;8.50;8.00;;;19.70;99.90;;;;;;4973751;28;20479;-65
2023/09/29 04:30:26;;;;;;;8.17;7.63;;;19.70;99.90;;;;;;4974577;28;20212;-65
2023/09/29 04:32:55;;;;;;;7.87;7.30;;;19.70;99.90;;;;;;4974216;28;20290;-65
2023/09/29 04:35:21;;;;;;;8.43;7.93;;;19.70;99.90;;;;;;4956265;28;20650;-61
2023/09/29 04:37:48;;;;;;;7.60;7.00;;;19.70;99.90;;;;;;4974079;28;20401;-65
2023/09/29 04:40:14;;;;;;;7.17;6.77;;;19.70;99.90;;;;;;4974956;28;20176;-64
2023/09/29 04:42:40;;;;;;;8.63;8.03;;;19.70;99.90;;;;;;4955985;28;20538;-65
2023/09/29 04:45:07;;;;;;;6.90;6.47;;;19.80;99.90;;;;;;4974088;28;20616;-64
2023/09/29 04:47:33;;;;;;;7.00;6.57;;;19.80;99.90;;;;;;4974074;28;20447;-65
2023/09/29 04:49:59;;;;;;;8.30;7.70;;;19.70;99.90;;;;;;4973202;28;20455;-65
2023/09/29 04:52:28;;;;;;;8.60;8.00;;;19.80;99.90;;;;;;4973075;28;20200;-64
2023/09/29 04:54:53;;;;;;;8.13;7.53;;;19.80;99.90;;;;;;4973710;28;20188;-65
2023/09/29 04:57:19;;;;;;;7.90;7.30;;;19.90;99.90;;;;;;4974483;28;20768;-60
2023/09/29 04:59:45;;;;;;;8.10;7.60;;;19.90;99.90;;;;;;4973121;28;20192;-65
2023/09/29 05:02:11;;;;;;;8.20;7.70;;;19.90;99.90;;;;;;4955663;28;20478;-65
2023/09/29 05:04:37;;;;;;;5.80;5.40;;;20.00;99.90;;;;;;4955648;28;20431;-65
2023/09/29 05:07:02;;;;;;;7.80;7.20;;;20.00;99.90;;;;;;4974397;28;20187;-65
2023/09/29 05:09:28;;;;;;;6.80;6.30;;;20.00;99.90;;;;;;4972709;28;20184;-64
2023/09/29 05:11:54;;;;;;;7.33;6.33;;;20.00;99.90;;;;;;4972635;28;20188;-63
2023/09/29 05:14:20;;;;;;;6.13;5.73;;;20.00;99.90;;;;;;4963521;28;20193;-60
2023/09/29 05:16:47;;;;;;;7.07;6.57;;;20.00;99.90;;;;;;4970468;28;20731;-65
2023/09/29 05:19:13;;;;;;;6.43;5.83;;;20.00;99.90;;;;;;4973427;28;20209;-65
2023/09/29 05:21:39;;;;;;;6.57;6.17;;;20.00;99.90;;;;;;4973896;28;20495;-65
2023/09/29 05:24:05;;;;;;;7.03;6.33;;;20.00;99.90;;;;;;4971917;28;20761;-65
2023/09/29 05:26:31;;;;;;;5.60;5.20;;;20.00;99.90;;;;;;4972117;28;20431;-64
2023/09/29 05:28:59;;;;;;;9.53;6.20;;;20.00;99.90;;;;;;4974130;28;20873;-65
2023/09/29 05:31:25;;;;;;;7.80;7.10;;;20.10;99.90;;;;;;4972078;28;20184;-66
2023/09/29 05:33:53;;;;;;;7.37;6.60;;;20.10;99.90;;;;;;4973740;28;20498;-64
2023/09/29 05:36:23;;;;;;;6.53;6.03;;;20.10;99.90;;;;;;4974304;28;20187;-65
2023/09/29 05:38:49;;;;;;;7.70;7.20;;;20.20;99.90;;;;;;4956250;28;20867;-65
2023/09/29 05:41:15;;;;;;;10.43;9.60;;;20.20;99.90;;;;;;4974178;28;20455;-65
2023/09/29 05:43:41;;;;;;;7.37;6.67;;;20.20;99.90;;;;;;4954768;28;21026;-65
2023/09/29 05:46:07;;;;;;;14.50;13.10;;;20.20;99.90;;;;;;4973562;28;20188;-65
2023/09/29 05:48:33;;;;;;;7.23;6.70;;;20.20;99.90;;;;;;4973287;28;20222;-65
2023/09/29 05:51:00;;;;;;;8.70;8.00;;;20.30;99.90;;;;;;4971881;28;20691;-67
2023/09/29 05:53:26;;;;;;;12.67;11.47;;;20.20;99.90;;;;;;4972775;28;20199;-69
2023/09/29 05:55:51;;;;;;;7.07;6.47;;;20.20;99.90;;;;;;4972833;28;20436;-68
2023/09/29 05:58:17;;;;;;;8.10;7.40;;;20.30;99.90;;;;;;4955739;28;20192;-68
2023/09/29 06:00:43;;;;;;;9.30;8.50;;;20.40;99.90;;;;;;4973348;28;20192;-69
2023/09/29 06:03:09;;;;;;;9.67;8.77;;;20.60;99.90;;;;;;4973069;28;20227;-69
2023/09/29 06:05:34;;;;;;;8.17;7.47;;;20.70;99.90;;;;;;4953386;28;20184;-68
2023/09/29 06:08:00;;;;;;;8.53;7.87;;;20.80;99.90;;;;;;4972646;28;20184;-69
2023/09/29 06:10:26;;;;;;;8.73;8.03;;;20.90;99.90;;;;;;4959427;28;20180;-68
2023/09/29 06:12:52;;;;;;;8.40;7.70;;;21.00;99.90;;;;;;4972287;28;20454;-68
2023/09/29 06:15:18;;;;;;;7.07;6.57;;;21.10;99.90;;;;;;4973101;28;20432;-69
2023/09/29 06:17:44;;;;;;;7.00;6.27;;;21.10;99.90;;;;;;4973167;28;20412;-69
2023/09/29 06:20:10;;;;;;;5.53;4.70;;;21.20;99.90;;;;;;4972951;28;20185;-69
2023/09/29 06:22:36;;;;;;;6.27;5.20;;;21.30;99.90;;;;;;4972413;28;20522;-69
2023/09/29 06:25:02;;;;;;;9.23;8.43;;;21.30;99.90;;;;;;4977280;28;20939;-69
2023/09/29 06:27:28;;;;;;;6.90;6.30;;;21.40;99.90;;;;;;4974779;28;20487;-68
2023/09/29 06:29:54;;;;;;;5.70;5.23;;;21.40;99.90;;;;;;4971419;28;20210;-68
2023/09/29 06:32:20;;;;;;;6.60;5.90;;;21.40;99.90;;;;;;4973266;28;20184;-67
2023/09/29 06:34:46;;;;;;;6.53;5.93;;;21.50;99.90;;;;;;4974837;28;20239;-68
2023/09/29 06:37:11;;;;;;;5.60;5.30;;;21.50;99.90;;;;;;4975282;28;20933;-67
2023/09/29 06:39:37;;;;;;;5.87;5.47;;;21.60;99.90;;;;;;4974581;28;20532;-68
2023/09/29 06:42:04;;;;;;;8.00;7.30;;;21.60;99.90;;;;;;4975700;28;20214;-68
2023/09/29 06:44:30;;;;;;;8.83;8.13;;;21.60;99.90;;;;;;4966902;28;20432;-68
2023/09/29 06:46:56;;;;;;;6.40;6.00;;;21.60;99.90;;;;;;4969606;28;20515;-68
2023/09/29 06:49:22;;;;;;;8.73;7.97;;;21.70;99.90;;;;;;4973885;28;20518;-68
2023/09/29 06:51:48;;;;;;;8.30;7.50;;;21.70;99.90;;;;;;4972590;28;20625;-68
2023/09/29 06:54:14;;;;;;;8.20;7.50;;;21.70;99.90;;;;;;4967509;28;20247;-68
2023/09/29 06:56:40;;;;;;;11.87;10.67;;;21.70;99.90;;;;;;4928429;28;20856;-68
2023/09/29 06:59:07;;;;;;;11.30;10.23;;;21.60;99.90;;;;;;4974309;28;20522;-69
2023/09/29 07:01:34;;;;;;;12.03;10.87;;;21.70;99.90;;;;;;4974719;28;20208;-68
2023/09/29 07:03:59;;;;;;;8.60;7.70;;;21.70;99.90;;;;;;4972272;28;20424;-69
2023/09/29 07:06:25;;;;;;;7.40;6.80;;;21.70;99.90;;;;;;4972546;28;20950;-69
2023/09/29 07:08:52;;;;;;;8.70;7.70;;;21.70;99.90;;;;;;4967370;28;20181;-69
2023/09/29 07:11:18;;;;;;;7.50;6.90;;;21.80;99.90;;;;;;4959204;28;20724;-69
2023/09/29 07:13:44;;;;;;;7.20;6.60;;;21.80;99.90;;;;;;4976280;28;20408;-68
2023/09/29 07:16:10;;;;;;;12.00;10.90;;;21.90;99.90;;;;;;4976925;28;20418;-68
2023/09/29 07:18:36;;;;;;;12.03;10.83;;;21.90;99.90;;;;;;4976086;28;20778;-68
2023/09/29 07:21:02;;;;;;;7.87;7.20;;;22.00;99.90;;;;;;4976742;28;20177;-69
2023/09/29 07:23:30;;;;;;;9.37;8.67;;;22.00;99.90;;;;;;4971581;28;20227;-63
2023/09/29 07:25:56;;;;;;;11.37;10.30;;;22.00;99.90;;;;;;4973219;28;20187;-69
2023/09/29 07:28:22;;;;;;;8.90;8.00;;;22.00;99.90;;;;;;4976673;28;20531;-69
2023/09/29 07:30:50;;;;;;;7.40;6.80;;;22.00;99.90;;;;;;4975906;28;20444;-69
2023/09/29 07:33:16;;;;;;;10.00;9.03;;;22.00;99.90;;;;;;4959360;28;20875;-69
2023/09/29 07:35:44;;;;;;;8.80;8.10;;;22.10;99.90;;;;;;4967893;28;20448;-69
2023/09/29 07:38:10;;;;;;;8.13;7.43;;;22.10;99.90;;;;;;4976394;28;20187;-68
2023/09/29 07:40:36;;;;;;;10.10;9.10;;;22.10;99.90;;;;;;4971872;28;20430;-75
2023/09/29 07:43:03;;;;;;;17.83;15.77;;;22.10;99.90;;;;;;4969113;28;20463;-74
2023/09/29 07:45:29;;;;;;;30.87;23.23;;;22.10;99.90;;;;;;4967340;28;20439;-69
2023/09/29 07:47:55;;;;;;;11.00;8.70;;;22.10;99.90;;;;;;4968223;28;20440;-79
2023/09/29 07:50:21;;;;;;;34.23;28.10;;;22.10;99.90;;;;;;4967103;28;20180;-76
2023/09/29 07:52:47;;;;;;;481.53;317.97;;;22.20;99.90;;;;;;4973412;28;20196;-76
2023/09/29 07:55:12;;;;;;;116.10;80.60;;;22.20;99.90;;;;;;4973506;28;20195;-76
2023/09/29 07:57:38;;;;;;;80.10;54.00;;;22.20;99.90;;;;;;4972095;28;20256;-71
2023/09/29 08:00:05;;;;;;;49.80;34.47;;;22.30;99.90;;;;;;4972265;28;20185;-71
2023/09/29 08:02:31;;;;;;;14.40;11.77;;;22.30;99.90;;;;;;4961167;28;20204;-65
2023/09/29 08:04:57;;;;;;;16.07;14.00;;;22.40;99.90;;;;;;4950723;28;20931;-66
2023/09/29 08:07:23;;;;;;;20.30;17.20;;;22.50;99.90;;;;;;4969633;28;20431;-66
2023/09/29 08:09:50;;;;;;;18.30;11.50;;;22.50;99.90;;;;;;4950379;28;21006;-65
2023/09/29 08:12:17;;;;;;;8.20;7.50;;;22.60;99.90;;;;;;4967314;28;20434;-71
2023/09/29 08:14:43;;;;;;;9.53;8.83;;;22.60;99.90;;;;;;4967093;28;20431;-64
2023/09/29 08:17:09;;;;;;;10.90;10.00;;;22.60;99.90;;;;;;4973417;28;20428;-66
2023/09/29 08:19:36;;;;;;;13.23;12.00;;;22.60;99.90;;;;;;4962540;28;20440;-66
2023/09/29 08:22:02;;;;;;;6.70;6.20;;;22.50;99.90;;;;;;4960738;28;20476;-67
2023/09/29 08:24:31;;;;;;;7.63;7.03;;;22.60;99.90;;;;;;4968927;28;20450;-67
2023/09/29 08:26:56;;;;;;;10.07;9.27;;;22.50;99.90;;;;;;4962332;28;20459;-67
2023/09/29 08:29:23;;;;;;;7.20;6.80;;;22.40;99.90;;;;;;4967621;28;20792;-66
2023/09/29 08:31:49;;;;;;;7.50;6.90;;;22.50;99.90;;;;;;4967184;28;20670;-67
2023/09/29 08:34:14;;;;;;;6.10;5.60;;;22.50;99.90;;;;;;4965697;28;20942;-65
2023/09/29 08:36:41;;;;;;;6.27;5.80;;;22.60;99.90;;;;;;4965701;28;20487;-66
2023/09/29 08:39:06;;;;;;;6.80;6.37;;;22.70;99.90;;;;;;4966926;28;20551;-70
2023/09/29 08:41:35;;;;;;;5.67;5.37;;;22.80;99.90;;;;;;4966219;28;20467;-64
2023/09/29 08:44:08;;;;;;;8.00;7.50;;;22.90;99.90;;;;;;4968797;28;20279;-66
2023/09/29 08:46:37;;;;;;;54.27;41.60;;;22.90;99.90;;;;;;4966076;28;20455;-64
2023/09/29 08:49:03;;;;;;;31.30;27.90;;;23.00;99.90;;;;;;4965787;28;20424;-65
2023/09/29 08:51:33;;;;;;;7.50;6.70;;;22.90;99.90;;;;;;4966381;28;20436;-65
2023/09/29 08:54:02;;;;;;;5.70;5.30;;;23.00;99.90;;;;;;4948283;28;20436;-65
2023/09/29 08:56:28;;;;;;;6.63;6.13;;;23.10;99.90;;;;;;4966254;28;20428;-65
2023/09/29 08:58:55;;;;;;;5.47;5.10;;;23.00;99.90;;;;;;4965301;28;20924;-66
2023/09/29 09:01:21;;;;;;;6.17;5.77;;;22.90;99.90;;;;;;4971623;28;20314;-65
2023/09/29 09:03:47;;;;;;;5.53;5.23;;;22.90;99.90;;;;;;4967730;28;20471;-65
2023/09/29 09:06:24;;;;;;;5.90;5.60;;;22.90;99.90;;;;;;4964918;28;20688;-66
2023/09/29 09:08:51;;;;;;;13.17;12.07;;;23.00;99.90;;;;;;4966509;28;20780;-66
2023/09/29 09:11:17;;;;;;;6.60;6.10;;;22.90;99.90;;;;;;4965904;28;20530;-66
2023/09/29 09:13:58;;;;;;;5.97;5.57;;;22.90;99.90;;;;;;4967069;28;20482;-66
2023/09/29 09:16:28;;;;;;;6.27;5.80;;;23.00;99.90;;;;;;4966477;28;20428;-67
2023/09/29 09:18:55;;;;;;;5.00;4.60;;;23.00;99.90;;;;;;4967008;28;21214;-66
2023/09/29 09:21:32;;;;;;;5.50;5.10;;;23.00;99.90;;;;;;4967517;28;20546;-67
2023/09/29 09:23:58;;;;;;;4.80;4.50;;;23.00;99.90;;;;;;4968414;28;20608;-66
2023/09/29 09:26:27;;;;;;;5.87;5.47;;;23.10;99.90;;;;;;4967726;28;20431;-66
2023/09/29 09:28:53;;;;;;;5.83;5.43;;;23.10;99.90;;;;;;4968454;28;20990;-66
2023/09/29 09:31:18;;;;;;;35.10;31.67;;;23.10;99.90;;;;;;4968295;28;20447;-66
2023/09/29 09:33:51;;;;;;;45.20;39.63;;;23.10;99.90;;;;;;4971002;28;20188;-66
2023/09/29 09:36:17;;;;;;;9.27;8.30;;;23.10;99.90;;;;;;4955750;28;20187;-66
2023/09/29 09:38:43;;;;;;;5.57;5.20;;;23.10;99.90;;;;;;4969578;28;20423;-67
2023/09/29 09:41:10;;;;;;;7.67;6.97;;;23.00;99.90;;;;;;4948796;28;20319;-66
2023/09/29 09:43:37;;;;;;;6.23;5.83;;;23.00;99.90;;;;;;4965602;28;20621;-67
2023/09/29 09:46:05;;;;;;;5.67;5.37;;;23.00;99.90;;;;;;4965501;28;20784;-66
2023/09/29 09:48:59;;;;;;;6.57;6.00;;;23.00;99.90;;;;;;4965335;28;20517;-66
2023/09/29 09:51:35;;;;;;;6.20;5.80;;;22.90;99.90;;;;;;4970504;28;20478;-66
2023/09/29 09:54:08;;;;;;;8.47;7.87;;;22.90;99.90;;;;;;4970232;28;20428;-64
2023/09/29 09:56:45;;;;;;;6.20;5.70;;;22.90;99.90;;;;;;4970154;28;20803;-66
2023/09/29 09:59:13;;;;;;;10.50;9.70;;;23.00;99.90;;;;;;4970899;28;20436;-67
2023/09/29 10:01:40;;;;;;;8.67;7.90;;;23.10;99.90;;;;;;4972460;28;20519;-67
2023/09/29 10:04:08;;;;;;;8.03;7.47;;;23.20;99.90;;;;;;4962016;28;20425;-66
2023/09/29 10:06:34;;;;;;;6.07;5.50;;;23.30;99.90;;;;;;4972172;28;20436;-67
2023/09/29 10:09:01;;;;;;;7.90;7.33;;;23.40;99.90;;;;;;4971460;28;20519;-67
2023/09/29 10:11:27;;;;;;;6.90;5.93;;;23.50;99.90;;;;;;4969354;28;20435;-66
2023/09/29 10:14:04;;;;;;;7.07;6.67;;;23.60;99.90;;;;;;4931561;28;20693;-66
2023/09/29 10:16:31;;;;;;;7.20;6.70;;;23.60;99.90;;;;;;4965302;28;20262;-67
2023/09/29 10:19:11;;;;;;;7.33;6.73;;;23.60;99.90;;;;;;4952570;28;20607;-61
2023/09/29 10:21:42;;;;;;;5.90;5.50;;;23.70;99.90;;;;;;4972104;28;20796;-61
2023/09/29 10:24:11;;;;;;;7.83;7.37;;;23.80;99.90;;;;;;4969913;28;20439;-60
2023/09/29 10:26:51;;;;;;;5.47;5.07;;;23.90;99.90;;;;;;4972510;28;20443;-60
2023/09/29 10:29:24;;;;;;;16.67;15.00;;;24.10;99.90;;;;;;4967064;28;20480;-60
2023/09/29 10:31:50;;;;;;;17.33;15.60;;;24.30;99.90;;;;;;4971193;28;20436;-59
2023/09/29 10:34:24;;;;;;;8.70;8.20;;;24.40;99.90;;;;;;4971185;28;21360;-59
2023/09/29 10:36:54;;;;;;;8.33;7.80;;;24.30;99.90;;;;;;4964769;28;20655;-58
2023/09/29 10:39:27;;;;;;;7.50;6.90;;;24.30;99.90;;;;;;4971697;28;20439;-58
2023/09/29 10:41:58;;;;;;;8.43;7.73;;;24.20;99.90;;;;;;4964902;28;20870;-58
2023/09/29 10:44:27;;;;;;;8.40;7.70;;;24.10;99.90;;;;;;4965897;28;20502;-60
2023/09/29 10:46:52;;;;;;;8.40;7.80;;;24.10;99.90;;;;;;4967594;28;20431;-57
2023/09/29 10:49:18;;;;;;;8.13;7.33;;;23.90;99.90;;;;;;4971748;28;20543;-57
2023/09/29 10:51:45;;;;;;;9.20;8.60;;;23.80;99.90;;;;;;4968759;28;20272;-58
2023/09/29 10:54:11;;;;;;;8.03;7.53;;;23.70;99.90;;;;;;4950626;28;20195;-59
2023/09/29 10:56:37;;;;;;;30.43;26.23;;;23.50;99.90;;;;;;4962912;28;20797;-59
2023/09/29 10:59:08;;;;;;;15.50;13.93;;;23.50;99.90;;;;;;4964205;28;21105;-59
2023/09/29 11:01:35;;;;;;;5.97;5.47;;;23.30;99.90;;;;;;4966537;28;20468;-59
2023/09/29 11:04:03;;;;;;;5.80;5.23;;;23.20;99.90;;;;;;4965330;28;20438;-58
2023/09/29 11:06:29;;;;;;;6.17;5.80;;;23.20;99.90;;;;;;4965685;28;20780;-58
2023/09/29 11:08:59;;;;;;;5.93;4.87;;;23.10;99.90;;;;;;4951637;28;20435;-59
2023/09/29 11:11:26;;;;;;;7.70;6.70;;;23.00;99.90;;;;;;4969634;28;20431;-59
2023/09/29 11:13:56;;;;;;;6.70;6.30;;;23.00;99.90;;;;;;4957188;28;20434;-58
2023/09/29 11:16:27;;;;;;;12.40;11.30;;;23.00;99.90;;;;;;4956205;28;20427;-59
2023/09/29 11:18:56;;;;;;;7.93;6.20;;;23.00;99.90;;;;;;4972402;28;20458;-70
2023/09/29 11:21:33;;;;;;;7.33;6.30;;;22.90;99.90;;;;;;4973306;28;20464;-72
2023/09/29 11:24:13;;;;;;;6.57;5.97;;;22.90;99.90;;;;;;4974242;28;20430;-72
2023/09/29 11:26:46;;;;;;;7.37;5.50;;;22.90;99.90;;;;;;4974974;28;20427;-72
2023/09/29 11:29:27;;;;;;;6.43;5.83;;;23.00;99.90;;;;;;4958173;28;20478;-72
2023/09/29 11:31:54;;;;;;;5.73;4.73;;;23.20;99.90;;;;;;4971034;28;20527;-71
2023/09/29 11:34:21;;;;;;;4.53;4.23;;;23.50;99.90;;;;;;4973837;28;20423;-65
2023/09/29 11:36:48;;;;;;;5.90;5.40;;;23.70;99.90;;;;;;4974186;28;20569;-66
2023/09/29 11:39:18;;;;;;;7.40;5.57;;;24.00;99.90;;;;;;4975358;28;20502;-71
2023/09/29 11:41:45;;;;;;;7.57;6.03;;;24.20;99.90;;;;;;4974057;28;20445;-70
2023/09/29 11:44:12;;;;;;;6.30;5.00;;;24.40;99.90;;;;;;4975654;28;20486;-71
2023/09/29 11:46:39;;;;;;;7.67;6.67;;;24.60;99.90;;;;;;4974864;28;20420;-71
2023/09/29 11:49:07;;;;;;;9.00;8.10;;;24.70;99.90;;;;;;4957501;28;20498;-68
2023/09/29 11:51:34;;;;;;;6.27;5.23;;;24.90;99.90;;;;;;4976044;28;20416;-69
2023/09/29 11:54:01;;;;;;;9.53;6.27;;;25.00;99.90;;;;;;4973992;28;20434;-58
2023/09/29 11:56:27;;;;;;;835.43;591.47;;;25.10;99.90;;;;;;4975316;28;20471;-59
2023/09/29 11:58:53;;;;;;;21.03;15.60;;;25.10;99.90;;;;;;4974864;28;20487;-58
2023/09/29 12:01:19;;;;;;;7.20;6.50;;;25.20;99.90;;;;;;4979427;28;20200;-59
2023/09/29 12:03:45;;;;;;;6.70;5.33;;;25.20;99.90;;;;;;4977211;28;20503;-59
2023/09/29 12:06:11;;;;;;;9.87;5.93;;;25.10;99.60;;;;;;4974171;28;21013;-59
2023/09/29 12:08:37;;;;;;;7.80;5.90;;;25.10;99.90;;;;;;4971827;28;20180;-59
2023/09/29 12:11:05;;;;;;;7.83;7.10;;;25.10;99.90;;;;;;4973634;28;20173;-59
2023/09/29 12:13:33;;;;;;;7.30;5.60;;;25.10;99.90;;;;;;4975180;28;20684;-59
2023/09/29 12:16:09;;;;;;;6.50;5.73;;;25.10;99.00;;;;;;4972194;28;20770;-59
2023/09/29 12:18:35;;;;;;;7.90;6.73;;;25.10;99.10;;;;;;4957296;28;20510;-58
2023/09/29 12:21:08;;;;;;;7.70;6.40;;;25.00;98.20;;;;;;4956186;28;20482;-58
2023/09/29 12:23:34;;;;;;;9.13;6.33;;;25.00;98.60;;;;;;4974523;28;20431;-58
2023/09/29 12:25:59;;;;;;;7.27;6.30;;;25.00;97.40;;;;;;4956774;28;20479;-58
2023/09/29 12:28:25;;;;;;;7.50;5.90;;;24.90;97.00;;;;;;4975266;28;20220;-58
2023/09/29 12:30:51;;;;;;;6.67;6.07;;;24.70;96.90;;;;;;4956704;28;20195;-58
2023/09/29 12:33:17;;;;;;;9.70;5.93;;;24.60;97.20;;;;;;4974554;28;20232;-58
2023/09/29 12:35:42;;;;;;;6.63;5.63;;;24.50;97.40;;;;;;4975077;28;20173;-58
2023/09/29 12:38:08;;;;;;;7.03;5.73;;;24.50;98.00;;;;;;4973794;28;20172;-59